Time;durP1;ratioP1;P1;durP2;ratioP2;P2;SDS_P1;SDS_P2;PMS_P1;PMS_P2;Temp;Humidity;BMP_temperature;BMP_pressure;BME280_temperature;BME280_humidity;BME280_pressure;Samples;Min_cycle;Max_cycle;Signal;HPM_P1;HPM_P2
2023/08/25 00:00:57;;;;;;;15.50;13.13;;;;;;;17.97;100.00;100710.09;5042975;28;20040;-69
2023/08/25 00:03:23;;;;;;;14.70;13.35;;;;;;;17.87;100.00;100710.03;5048333;28;20040;-68
2023/08/25 00:05:52;;;;;;;14.15;12.68;;;;;;;17.96;100.00;100716.47;5048661;28;20036;-69
2023/08/25 00:08:17;;;;;;;15.18;13.68;;;;;;;17.94;100.00;100726.53;5043152;28;20299;-69
2023/08/25 00:10:42;;;;;;;13.65;12.30;;;;;;;17.90;100.00;100716.00;5050965;28;20033;-68
2023/08/25 00:13:08;;;;;;;13.00;11.48;;;;;;;17.87;100.00;100718.94;5055987;28;20505;-69
2023/08/25 00:15:33;;;;;;;13.60;12.10;;;;;;;17.77;100.00;100701.88;5052190;28;20028;-67
2023/08/25 00:17:58;;;;;;;14.32;12.82;;;;;;;17.84;100.00;100716.50;5057929;28;20119;-68
2023/08/25 00:20:25;;;;;;;15.25;13.70;;;;;;;17.84;100.00;100721.03;5040218;28;20556;-69
2023/08/25 00:22:51;;;;;;;16.25;13.30;;;;;;;17.86;100.00;100725.31;5060710;28;20045;-68
2023/08/25 00:25:16;;;;;;;15.80;13.63;;;;;;;17.80;100.00;100725.81;5045760;28;20461;-68
2023/08/25 00:27:42;;;;;;;13.38;12.07;;;;;;;17.82;100.00;100721.19;5035119;28;20673;-68
2023/08/25 00:30:10;;;;;;;15.05;11.95;;;;;;;17.77;100.00;100731.47;5044215;28;20471;-67
2023/08/25 00:32:37;;;;;;;13.45;12.15;;;;;;;17.78;100.00;100725.09;5041748;28;20048;-69
2023/08/25 00:35:03;;;;;;;14.70;12.90;;;;;;;17.80;100.00;100733.91;5038183;28;20120;-68
2023/08/25 00:37:29;;;;;;;14.27;12.90;;;;;;;17.76;100.00;100736.97;5057692;28;20135;-68
2023/08/25 00:39:57;;;;;;;14.05;12.55;;;;;;;17.77;100.00;100730.63;5055904;28;20127;-67
2023/08/25 00:42:23;;;;;;;13.45;12.15;;;;;;;17.75;100.00;100735.28;5043717;28;20144;-68
2023/08/25 00:44:48;;;;;;;14.43;12.93;;;;;;;17.78;100.00;100737.72;5040405;28;20021;-68
2023/08/25 00:47:14;;;;;;;13.63;12.27;;;;;;;17.68;100.00;100738.44;5059055;28;20494;-68
2023/08/25 00:49:40;;;;;;;13.35;12.00;;;;;;;17.61;100.00;100741.75;5042212;28;20056;-69
2023/08/25 00:52:06;;;;;;;14.07;12.63;;;;;;;17.55;100.00;100742.25;5047629;28;20217;-69
2023/08/25 00:54:34;;;;;;;14.32;12.82;;;;;;;17.51;100.00;100743.47;5051455;28;20078;-70
2023/08/25 00:57:00;;;;;;;13.95;12.55;;;;;;;17.54;100.00;100736.00;5055257;28;20487;-69
2023/08/25 00:59:26;;;;;;;14.20;12.75;;;;;;;17.56;100.00;100738.59;5051723;28;20332;-70
2023/08/25 01:01:52;;;;;;;14.68;13.38;;;;;;;17.64;100.00;100744.19;5064986;28;20017;-67
2023/08/25 01:04:17;;;;;;;16.65;12.52;;;;;;;17.72;100.00;100735.47;5052931;28;20295;-68
2023/08/25 01:06:43;;;;;;;14.38;12.90;;;;;;;17.72;100.00;100733.63;5045541;28;20453;-69
2023/08/25 01:09:10;;;;;;;14.25;12.88;;;;;;;17.63;100.00;100729.03;5035465;28;20029;-70
2023/08/25 01:11:41;;;;;;;13.88;12.48;;;;;;;17.69;100.00;100733.91;5051690;28;20055;-69
2023/08/25 01:14:33;;;;;;;13.63;12.30;;;;;;;17.64;100.00;100736.09;5046357;28;20036;-68
2023/08/25 01:17:17;;;;;;;14.40;12.88;;;;;;;17.63;100.00;100740.63;5049460;28;20086;-69
2023/08/25 01:19:52;;;;;;;;;;;;;;;17.65;100.00;100743.22;5047793;28;20191;-68
2023/08/25 01:22:24;;;;;;;14.65;13.00;;;;;;;17.67;100.00;100741.25;5050560;28;19935;-68
2023/08/25 01:24:52;;;;;;;13.27;11.93;;;;;;;17.60;100.00;100746.28;5048373;28;20038;-67
2023/08/25 01:27:18;;;;;;;13.60;12.20;;;;;;;17.52;100.00;100732.59;5051053;28;20820;-67
2023/08/25 01:29:44;;;;;;;13.82;12.20;;;;;;;17.56;100.00;100731.38;5048200;28;20463;-67
2023/08/25 01:32:09;;;;;;;14.15;12.75;;;;;;;17.49;100.00;100723.94;5044025;28;20029;-68
2023/08/25 01:34:36;;;;;;;13.98;12.57;;;;;;;17.49;100.00;100732.00;5046069;28;20479;-67
2023/08/25 01:37:21;;;;;;;15.00;13.52;;;;;;;17.47;100.00;100724.03;5056158;28;20103;-69
2023/08/25 01:39:51;;;;;;;16.13;14.13;;;;;;;17.42;100.00;100719.03;5050449;28;20054;-68
2023/08/25 01:42:19;;;;;;;16.02;14.10;;;;;;;17.48;100.00;100716.84;5054817;28;20161;-71
2023/08/25 01:44:46;;;;;;;16.30;14.70;;;;;;;17.46;100.00;100718.78;5053455;28;20036;-70
2023/08/25 01:47:16;;;;;;;17.13;15.32;;;;;;;17.48;100.00;100717.69;5057707;28;20046;-68
2023/08/25 01:49:43;;;;;;;17.67;15.63;;;;;;;17.47;100.00;100724.03;5042247;28;20032;-70
2023/08/25 01:52:12;;;;;;;17.15;15.25;;;;;;;17.55;100.00;100718.88;5043806;28;20049;-71
2023/08/25 01:54:38;;;;;;;18.90;17.00;;;;;;;17.55;100.00;100718.03;5042364;28;20051;-70
2023/08/25 01:57:03;;;;;;;19.38;17.30;;;;;;;17.54;100.00;100709.09;5038671;28;20439;-67
2023/08/25 01:59:29;;;;;;;19.42;17.20;;;;;;;17.58;100.00;100715.94;5042397;28;20530;-67
2023/08/25 02:01:54;;;;;;;18.38;16.45;;;;;;;17.62;100.00;100709.31;5027169;28;20037;-68
2023/08/25 02:04:19;;;;;;;18.73;16.60;;;;;;;17.64;100.00;100709.19;5052105;28;20025;-68
2023/08/25 02:06:45;;;;;;;17.73;15.85;;;;;;;17.67;100.00;100699.03;5043794;28;20199;-68
2023/08/25 02:09:10;;;;;;;19.42;17.25;;;;;;;17.67;100.00;100698.19;5034290;28;20039;-68
2023/08/25 02:11:36;;;;;;;20.00;16.02;;;;;;;17.72;100.00;100708.56;5047150;28;20032;-68
2023/08/25 02:14:02;;;;;;;18.80;16.98;;;;;;;17.67;100.00;100690.09;5044537;28;20494;-68
2023/08/25 02:16:27;;;;;;;17.38;15.48;;;;;;;17.77;100.00;100701.00;5050152;28;20056;-68
2023/08/25 02:18:52;;;;;;;19.10;15.77;;;;;;;17.72;100.00;100698.66;5038597;28;20025;-67
2023/08/25 02:21:17;;;;;;;17.23;15.55;;;;;;;17.76;100.00;100692.06;5041043;28;20052;-67
2023/08/25 02:23:43;;;;;;;18.02;16.20;;;;;;;17.81;100.00;100697.09;5070171;28;20036;-67
2023/08/25 02:26:09;;;;;;;17.45;15.63;;;;;;;17.76;100.00;100691.22;5054373;28;20504;-69
2023/08/25 02:28:34;;;;;;;17.08;15.23;;;;;;;17.82;100.00;100685.31;5042598;28;20025;-69
2023/08/25 02:31:00;;;;;;;16.75;15.07;;;;;;;17.81;100.00;100689.84;5047698;28;20128;-68
2023/08/25 02:33:26;;;;;;;17.58;15.88;;;;;;;17.80;100.00;100690.81;5043820;28;20021;-68
2023/08/25 02:35:52;;;;;;;19.08;15.98;;;;;;;17.74;100.00;100683.28;5037709;28;20032;-69
2023/08/25 02:38:17;;;;;;;17.90;16.13;;;;;;;17.76;100.00;100681.28;5042556;28;20185;-68
2023/08/25 02:40:42;;;;;;;17.95;15.93;;;;;;;17.75;100.00;100674.22;5042797;28;20146;-68
2023/08/25 02:43:08;;;;;;;17.27;15.57;;;;;;;17.67;100.00;100671.25;5053091;28;20032;-68
2023/08/25 02:45:35;;;;;;;17.33;15.73;;;;;;;17.67;100.00;100671.25;5045245;28;20393;-68
2023/08/25 02:48:01;;;;;;;17.88;16.17;;;;;;;17.69;100.00;100666.63;5039888;28;20029;-68
2023/08/25 02:50:27;;;;;;;17.55;15.80;;;;;;;17.72;100.00;100668.19;5045618;28;20033;-68
2023/08/25 02:52:52;;;;;;;17.50;15.70;;;;;;;17.71;100.00;100655.72;5027282;28;20055;-68
2023/08/25 02:55:21;;;;;;;17.45;15.75;;;;;;;17.69;100.00;100650.47;5041689;28;20029;-68
2023/08/25 02:57:47;;;;;;;17.85;16.05;;;;;;;17.65;100.00;100651.72;5046394;28;20103;-69
2023/08/25 03:00:16;;;;;;;17.13;15.30;;;;;;;17.72;100.00;100650.19;5037112;28;20094;-68
2023/08/25 03:02:42;;;;;;;17.13;15.32;;;;;;;17.67;100.00;100650.59;5037510;28;20029;-68
2023/08/25 03:05:09;;;;;;;18.10;16.40;;;;;;;17.73;100.00;100645.69;5032776;28;20084;-68
2023/08/25 03:07:34;;;;;;;19.23;17.15;;;;;;;17.72;100.00;100642.13;5044641;28;20056;-68
2023/08/25 03:10:00;;;;;;;17.27;15.45;;;;;;;17.68;100.00;100635.28;5038613;28;20541;-67
2023/08/25 03:12:26;;;;;;;17.55;15.82;;;;;;;17.72;100.00;100639.44;5050626;28;20029;-68
2023/08/25 03:14:52;;;;;;;18.50;16.60;;;;;;;17.69;100.00;100637.00;5051142;28;20111;-68
2023/08/25 03:17:18;;;;;;;17.42;15.68;;;;;;;17.68;100.00;100636.16;5042306;28;20504;-68
2023/08/25 03:19:43;;;;;;;17.75;16.05;;;;;;;17.74;100.00;100637.50;5049916;28;20025;-68
2023/08/25 03:22:09;;;;;;;17.52;15.73;;;;;;;17.68;100.00;100627.22;5036369;28;20131;-68
2023/08/25 03:24:34;;;;;;;18.80;16.95;;;;;;;17.76;100.00;100627.44;5046246;28;20376;-68
2023/08/25 03:26:59;;;;;;;18.10;16.23;;;;;;;17.74;100.00;100628.56;5044845;28;20116;-68
2023/08/25 03:29:28;;;;;;;20.65;17.13;;;;;;;17.70;100.00;100617.19;5044055;28;20031;-68
2023/08/25 03:31:54;;;;;;;18.67;16.77;;;;;;;17.72;100.00;100615.19;5028385;28;20033;-68
2023/08/25 03:34:19;;;;;;;18.65;16.70;;;;;;;17.71;100.00;100612.66;5026794;28;20029;-68
2023/08/25 03:36:46;;;;;;;20.30;18.10;;;;;;;17.76;100.00;100616.69;5041529;28;20335;-67
2023/08/25 03:39:12;;;;;;;19.13;17.10;;;;;;;17.77;100.00;100615.72;5035400;28;20494;-68
2023/08/25 03:41:37;;;;;;;18.58;16.52;;;;;;;17.71;100.00;100610.81;5037387;28;20075;-68
2023/08/25 03:44:03;;;;;;;18.95;16.88;;;;;;;17.71;100.00;100618.88;5027616;28;20033;-68
2023/08/25 03:46:28;;;;;;;17.73;15.93;;;;;;;17.67;100.00;100606.66;5059183;28;20488;-68
2023/08/25 03:48:54;;;;;;;19.92;16.55;;;;;;;17.69;100.00;100602.03;5028151;28;20040;-68
2023/08/25 03:51:19;;;;;;;18.27;16.55;;;;;;;17.74;100.00;100607.00;4993684;28;1185396;-67
2023/08/25 03:53:44;;;;;;;18.63;16.67;;;;;;;17.74;100.00;100615.09;5029162;28;20426;-68
2023/08/25 03:56:10;;;;;;;18.05;16.10;;;;;;;17.77;100.00;100607.66;5037938;28;20032;-68
2023/08/25 03:58:35;;;;;;;21.52;17.52;;;;;;;17.72;100.00;100608.97;5032927;28;20407;-68
2023/08/25 04:01:00;;;;;;;18.08;16.38;;;;;;;17.73;100.00;100608.00;5043200;28;20025;-68
2023/08/25 04:03:28;;;;;;;17.83;16.13;;;;;;;17.62;100.00;100590.91;5045550;28;20025;-67
2023/08/25 04:05:54;;;;;;;17.20;15.50;;;;;;;17.74;100.00;100599.81;5067170;28;20036;-68
2023/08/25 04:08:19;;;;;;;20.40;17.45;;;;;;;17.72;100.00;100596.34;5035406;28;20028;-67
2023/08/25 04:10:45;;;;;;;18.77;16.77;;;;;;;17.69;100.00;100596.66;5037808;28;20941;-67
2023/08/25 04:13:10;;;;;;;18.20;16.40;;;;;;;17.64;100.00;100591.66;5041682;28;20396;-68
2023/08/25 04:15:36;;;;;;;18.35;16.45;;;;;;;17.61;100.00;100596.44;5053044;28;20260;-68
2023/08/25 04:18:02;;;;;;;17.63;15.82;;;;;;;17.56;100.00;100593.28;5043975;28;20480;-68
2023/08/25 04:20:28;;;;;;;18.25;16.48;;;;;;;17.46;100.00;100586.94;5047139;28;20036;-68
2023/08/25 04:22:53;;;;;;;18.70;16.70;;;;;;;17.52;100.00;100581.06;5042389;28;20391;-67
2023/08/25 04:25:19;;;;;;;18.50;16.10;;;;;;;17.50;100.00;100586.56;5039931;28;20044;-67
2023/08/25 04:27:44;;;;;;;18.60;16.80;;;;;;;17.48;100.00;100588.53;5042140;28;20024;-68
2023/08/25 04:30:10;;;;;;;18.95;16.90;;;;;;;17.41;100.00;100592.72;5041600;28;20045;-67
2023/08/25 04:32:35;;;;;;;18.92;16.77;;;;;;;17.37;100.00;100592.13;5037739;28;20137;-67
2023/08/25 04:35:01;;;;;;;19.23;17.23;;;;;;;17.37;100.00;100588.56;5034405;28;20056;-67
2023/08/25 04:37:27;;;;;;;19.83;17.67;;;;;;;17.41;100.00;100595.41;5049783;28;20040;-69
2023/08/25 04:39:54;;;;;;;19.25;17.35;;;;;;;17.38;100.00;100601.88;5035127;28;20033;-69
2023/08/25 04:42:20;;;;;;;19.15;17.20;;;;;;;17.34;100.00;100595.06;5039821;28;20105;-68
2023/08/25 04:44:47;;;;;;;20.33;18.23;;;;;;;17.29;100.00;100593.72;5049023;28;20243;-68
2023/08/25 04:47:12;;;;;;;19.95;17.85;;;;;;;17.25;100.00;100601.19;5056588;28;20032;-68
2023/08/25 04:49:38;;;;;;;20.25;18.05;;;;;;;17.22;100.00;100589.84;5050233;28;20114;-68
2023/08/25 04:52:03;;;;;;;18.92;17.08;;;;;;;17.21;100.00;100591.69;5053618;28;20048;-68
2023/08/25 04:54:29;;;;;;;19.63;17.25;;;;;;;17.16;100.00;100593.91;5052678;28;20035;-68
2023/08/25 04:56:54;;;;;;;19.85;17.10;;;;;;;17.13;100.00;100586.91;5060293;28;20032;-68
2023/08/25 04:59:19;;;;;;;21.30;17.95;;;;;;;17.11;100.00;100585.34;5058983;28;20396;-68
2023/08/25 05:01:45;;;;;;;19.42;17.27;;;;;;;17.15;100.00;100584.13;5051081;28;20494;-68
2023/08/25 05:04:11;;;;;;;19.40;17.40;;;;;;;17.15;100.00;100576.06;5047722;28;20050;-67
2023/08/25 05:06:37;;;;;;;19.67;17.77;;;;;;;17.11;100.00;100561.16;5051742;28;20035;-70
2023/08/25 05:09:02;;;;;;;20.42;18.20;;;;;;;17.14;100.00;100555.53;5045688;28;20021;-68
2023/08/25 05:11:28;;;;;;;20.20;18.13;;;;;;;17.17;100.00;100555.25;5051482;28;20039;-68
2023/08/25 05:13:53;;;;;;;19.02;17.23;;;;;;;17.16;100.00;100561.63;5047529;28;20026;-68
2023/08/25 05:16:19;;;;;;;19.98;17.88;;;;;;;17.08;100.00;100573.00;5052441;28;20017;-68
2023/08/25 05:18:45;;;;;;;21.08;19.08;;;;;;;17.13;100.00;100569.94;5052892;28;20029;-67
2023/08/25 05:21:11;;;;;;;20.75;18.65;;;;;;;17.12;100.00;100577.16;5050663;28;20097;-68
2023/08/25 05:23:37;;;;;;;20.75;18.73;;;;;;;17.17;100.00;100588.38;5042986;28;20034;-69
2023/08/25 05:26:03;;;;;;;20.20;18.00;;;;;;;17.18;100.00;100582.03;5049952;28;20036;-68
2023/08/25 05:28:28;;;;;;;22.27;19.95;;;;;;;17.24;100.00;100585.19;5047478;28;20025;-69
2023/08/25 05:30:54;;;;;;;21.77;19.48;;;;;;;17.21;100.00;100575.53;5043657;28;20033;-69
2023/08/25 05:33:19;;;;;;;23.42;21.02;;;;;;;17.33;100.00;100587.13;5028832;28;20029;-67
2023/08/25 05:35:45;;;;;;;25.17;21.83;;;;;;;17.53;100.00;100580.06;5048555;28;20024;-68
2023/08/25 05:38:10;;;;;;;24.75;22.25;;;;;;;17.66;100.00;100573.53;5043238;28;20035;-68
2023/08/25 05:40:35;;;;;;;22.65;20.25;;;;;;;17.84;100.00;100565.75;5054789;28;20017;-70
2023/08/25 05:43:01;;;;;;;22.80;20.60;;;;;;;17.92;100.00;100570.47;5047171;28;20504;-68
2023/08/25 05:45:29;;;;;;;22.15;19.90;;;;;;;17.98;100.00;100556.50;5039639;28;20052;-68
2023/08/25 05:47:54;;;;;;;21.20;19.10;;;;;;;18.07;100.00;100549.44;5047315;28;20037;-69
2023/08/25 05:50:20;;;;;;;21.95;19.75;;;;;;;18.17;100.00;100553.88;5050916;28;20024;-68
2023/08/25 05:52:47;;;;;;;23.70;21.27;;;;;;;18.34;100.00;100547.03;5050788;28;20099;-68
2023/08/25 05:55:13;;;;;;;22.30;20.13;;;;;;;18.33;100.00;100564.19;5048984;28;20119;-68
2023/08/25 05:57:39;;;;;;;22.58;20.48;;;;;;;18.37;100.00;100571.00;5048044;28;20059;-68
2023/08/25 06:00:07;;;;;;;21.30;19.35;;;;;;;18.33;100.00;100557.94;5054143;28;20078;-68
2023/08/25 06:02:33;;;;;;;20.63;18.58;;;;;;;18.31;100.00;100562.59;5060706;28;20035;-68
2023/08/25 06:04:59;;;;;;;21.08;19.15;;;;;;;18.12;100.00;100541.81;5048725;28;20483;-68
2023/08/25 06:07:24;;;;;;;22.30;20.02;;;;;;;18.15;100.00;100546.94;5045121;28;20028;-69
2023/08/25 06:09:50;;;;;;;22.10;20.10;;;;;;;18.08;100.00;100551.16;5038960;28;20029;-69
2023/08/25 06:12:15;;;;;;;21.48;19.42;;;;;;;18.00;100.00;100548.28;5033828;28;20021;-69
2023/08/25 06:14:40;;;;;;;22.63;20.40;;;;;;;17.88;100.00;100540.25;5037342;28;20031;-69
2023/08/25 06:17:06;;;;;;;22.02;20.02;;;;;;;17.90;100.00;100549.06;5044728;28;20064;-70
2023/08/25 06:19:31;;;;;;;22.90;20.75;;;;;;;17.88;100.00;100556.41;5046088;28;20020;-69
2023/08/25 06:22:00;;;;;;;22.08;20.10;;;;;;;17.90;100.00;100564.38;5038315;28;20381;-69
2023/08/25 06:24:25;;;;;;;22.95;20.77;;;;;;;17.85;100.00;100575.53;5039610;28;20029;-69
2023/08/25 06:26:51;;;;;;;24.35;22.08;;;;;;;17.84;100.00;100587.28;5052930;28;20501;-70
2023/08/25 06:29:17;;;;;;;22.10;20.08;;;;;;;17.74;100.00;100580.97;5041138;28;20419;-69
2023/08/25 06:31:42;;;;;;;21.50;19.40;;;;;;;17.74;100.00;100580.97;5033245;28;20100;-69
2023/08/25 06:34:08;;;;;;;22.02;19.92;;;;;;;17.72;100.00;100577.53;5045762;28;20475;-69
2023/08/25 06:36:33;;;;;;;22.77;20.48;;;;;;;17.71;100.00;100572.28;5040162;28;20049;-68
2023/08/25 06:39:00;;;;;;;22.88;20.67;;;;;;;17.66;100.00;100562.75;5039724;28;20017;-68
2023/08/25 06:41:25;;;;;;;23.15;21.00;;;;;;;17.65;100.00;100555.66;5038440;28;20029;-68
2023/08/25 06:43:51;;;;;;;22.10;19.90;;;;;;;17.65;100.00;100560.22;5039913;28;20200;-70
2023/08/25 06:46:17;;;;;;;22.52;20.42;;;;;;;17.58;100.00;100542.88;5042326;28;20029;-71
2023/08/25 06:48:42;;;;;;;22.48;20.17;;;;;;;17.57;100.00;100547.41;5036944;28;20024;-69
2023/08/25 06:51:08;;;;;;;22.77;20.48;;;;;;;17.52;100.00;100554.16;5034790;28;20415;-68
2023/08/25 06:53:34;;;;;;;22.90;20.70;;;;;;;17.49;100.00;100554.41;5042670;28;20376;-69
2023/08/25 06:55:59;;;;;;;22.45;20.13;;;;;;;17.46;100.00;100565.41;5036168;28;20048;-69
2023/08/25 06:58:24;;;;;;;22.08;19.63;;;;;;;17.43;100.00;100545.00;5036057;28;20418;-68
2023/08/25 07:00:50;;;;;;;22.50;20.27;;;;;;;17.45;100.00;100526.91;5033225;28;20056;-69
2023/08/25 07:03:16;;;;;;;21.65;19.10;;;;;;;17.40;100.00;100513.00;5035803;28;20028;-70
2023/08/25 07:05:42;;;;;;;21.38;19.15;;;;;;;17.40;100.00;100521.91;5033205;28;20032;-68
2023/08/25 07:08:08;;;;;;;21.45;19.52;;;;;;;17.44;100.00;100519.81;5035554;28;20025;-68
2023/08/25 07:10:34;;;;;;;21.80;19.83;;;;;;;17.43;100.00;100512.72;5039124;28;20410;-68
2023/08/25 07:13:00;;;;;;;22.08;19.98;;;;;;;17.39;100.00;100501.38;5036165;28;20096;-69
2023/08/25 07:15:25;;;;;;;22.20;19.95;;;;;;;17.41;100.00;100510.16;5033602;28;20107;-68
2023/08/25 07:17:51;;;;;;;23.00;20.67;;;;;;;17.43;100.00;100518.97;5037307;28;20056;-69
2023/08/25 07:20:16;;;;;;;23.98;21.40;;;;;;;17.45;100.00;100520.69;5031100;28;20087;-68
2023/08/25 07:22:42;;;;;;;25.65;22.98;;;;;;;17.37;100.00;100500.66;5036932;28;20033;-68
2023/08/25 07:25:07;;;;;;;29.25;25.13;;;;;;;17.55;100.00;100508.13;5030652;28;20044;-69
2023/08/25 07:27:34;;;;;;;28.05;24.92;;;;;;;17.57;100.00;100504.34;5038528;28;20104;-69
2023/08/25 07:29:59;;;;;;;28.48;24.75;;;;;;;17.64;100.00;100529.75;5035033;28;20099;-70
2023/08/25 07:32:24;;;;;;;27.65;24.48;;;;;;;17.57;100.00;100578.84;5049763;28;20069;-70
2023/08/25 07:34:50;;;;;;;28.33;24.67;;;;;;;17.47;100.00;100619.09;5032670;28;20037;-70
2023/08/25 07:37:15;;;;;;;29.17;24.60;;;;;;;17.36;100.00;100652.28;5023886;28;20040;-71
2023/08/25 07:39:41;;;;;;;57.38;28.08;;;;;;;17.22;100.00;100646.31;5036610;28;20052;-71
2023/08/25 07:42:07;;;;;;;51.22;31.98;;;;;;;17.15;100.00;100625.31;5034269;28;20123;-69
2023/08/25 07:44:33;;;;;;;71.43;38.90;;;;;;;17.34;100.00;100594.19;5043503;28;20040;-70
2023/08/25 07:47:04;;;;;;;54.25;35.58;;;;;;;17.54;100.00;100596.09;5037187;28;20060;-68
2023/08/25 07:49:29;;;;;;;43.65;32.55;;;;;;;17.48;100.00;100601.16;5041543;28;20479;-68
2023/08/25 07:51:54;;;;;;;35.85;28.80;;;;;;;17.49;100.00;100597.47;5044799;28;20045;-68
2023/08/25 07:54:20;;;;;;;37.80;29.38;;;;;;;17.74;100.00;100597.13;5043786;28;20181;-68
2023/08/25 07:56:45;;;;;;;42.10;29.58;;;;;;;17.81;100.00;100587.56;5036507;28;20361;-68
2023/08/25 07:59:10;;;;;;;41.63;27.70;;;;;;;17.88;100.00;100577.94;5045600;28;20025;-67
2023/08/25 08:01:36;;;;;;;42.78;29.40;;;;;;;18.01;100.00;100568.81;5042822;28;20017;-67
2023/08/25 08:04:03;;;;;;;46.55;31.52;;;;;;;18.02;100.00;100581.31;5043499;28;20486;-68
2023/08/25 08:06:28;;;;;;;32.90;25.95;;;;;;;17.93;100.00;100599.09;5045019;28;20183;-69
2023/08/25 08:08:54;;;;;;;25.23;22.27;;;;;;;17.76;100.00;100610.44;5044277;28;20037;-69
2023/08/25 08:11:19;;;;;;;26.58;23.45;;;;;;;17.64;100.00;100602.41;5039241;28;20113;-68
2023/08/25 08:13:45;;;;;;;23.70;21.17;;;;;;;17.59;100.00;100601.06;5035356;28;20046;-68
2023/08/25 08:16:10;;;;;;;26.60;21.73;;;;;;;17.57;100.00;100593.16;5042120;28;20066;-67
2023/08/25 08:18:35;;;;;;;22.95;20.48;;;;;;;17.45;100.00;100586.09;5053262;28;20569;-67
2023/08/25 08:21:01;;;;;;;23.70;19.08;;;;;;;17.47;100.00;100594.03;5054286;28;20081;-69
2023/08/25 08:23:27;;;;;;;28.25;21.58;;;;;;;17.55;100.00;100588.84;5035331;28;20032;-68
2023/08/25 08:25:54;;;;;;;27.67;22.83;;;;;;;17.57;100.00;100584.22;5045968;28;20063;-67
2023/08/25 08:28:19;;;;;;;24.45;21.15;;;;;;;17.55;100.00;100583.47;5042228;28;20031;-67
2023/08/25 08:30:44;;;;;;;27.05;21.92;;;;;;;17.52;100.00;100570.31;5050267;28;20024;-67
2023/08/25 08:33:10;;;;;;;30.95;23.80;;;;;;;17.56;100.00;100563.69;5045722;28;20116;-68
2023/08/25 08:35:36;;;;;;;26.88;23.10;;;;;;;17.53;100.00;100578.22;5052424;28;20032;-68
2023/08/25 08:38:03;;;;;;;25.35;21.45;;;;;;;17.47;100.00;100575.19;5051750;28;20434;-67
2023/08/25 08:40:31;;;;;;;26.98;21.73;;;;;;;17.52;100.00;100591.84;5053783;28;20043;-68
2023/08/25 08:43:00;;;;;;;24.77;22.02;;;;;;;17.50;100.00;100599.16;5046882;28;20033;-68
2023/08/25 08:45:26;;;;;;;29.63;22.90;;;;;;;17.55;100.00;100595.09;5044692;28;20120;-68
2023/08/25 08:47:53;;;;;;;29.48;23.88;;;;;;;17.58;100.00;100604.75;5043961;28;20028;-67
2023/08/25 08:50:19;;;;;;;29.73;23.42;;;;;;;17.54;100.00;100611.38;5036903;28;20088;-68
2023/08/25 08:52:47;;;;;;;29.38;24.00;;;;;;;17.48;100.00;100615.44;5058196;28;20040;-67
2023/08/25 08:55:12;;;;;;;31.92;24.67;;;;;;;17.46;100.00;100635.38;5050590;28;20044;-67
2023/08/25 08:57:38;;;;;;;31.63;24.05;;;;;;;17.41;100.00;100628.53;5048957;28;20052;-69
2023/08/25 09:00:09;;;;;;;34.63;25.67;;;;;;;17.42;100.00;100608.72;5046788;28;20082;-68
2023/08/25 09:02:35;;;;;;;36.25;26.45;;;;;;;17.37;100.00;100551.75;5056202;28;20567;-69
2023/08/25 09:05:02;;;;;;;48.53;28.95;;;;;;;17.39;100.00;100539.06;5040705;28;20123;-68
2023/08/25 09:07:32;;;;;;;47.15;29.08;;;;;;;17.38;100.00;100577.66;5047667;28;20025;-69
2023/08/25 09:09:59;;;;;;;48.10;29.17;;;;;;;17.51;100.00;100584.72;5046549;28;20044;-69
2023/08/25 09:12:25;;;;;;;47.05;29.52;;;;;;;17.45;100.00;100583.41;5045325;28;20036;-69
2023/08/25 09:14:50;;;;;;;50.78;29.33;;;;;;;17.41;100.00;100587.34;5063873;28;20027;-70
2023/08/25 09:17:16;;;;;;;66.07;33.38;;;;;;;17.48;100.00;100591.22;5043577;28;20479;-68
2023/08/25 09:19:41;;;;;;;48.78;30.35;;;;;;;17.38;100.00;100603.72;5047666;28;20024;-69
2023/08/25 09:22:13;;;;;;;62.53;32.97;;;;;;;17.44;100.00;100595.16;5041416;28;20025;-68
2023/08/25 09:24:42;;;;;;;51.95;31.73;;;;;;;17.52;100.00;100564.91;5046114;28;20041;-68
2023/08/25 09:27:20;;;;;;;44.03;30.23;;;;;;;17.50;100.00;100556.09;5041215;28;20029;-68
2023/08/25 09:29:45;;;;;;;67.78;34.72;;;;;;;17.68;100.00;100581.44;5038812;28;20455;-69
2023/08/25 09:32:14;;;;;;;55.75;33.80;;;;;;;17.75;100.00;100582.69;5033170;28;20052;-69
2023/08/25 09:34:40;;;;;;;47.55;30.52;;;;;;;17.78;100.00;100578.88;5046110;28;20021;-70
2023/08/25 09:37:07;;;;;;;52.90;31.90;;;;;;;17.77;100.00;100574.50;5046459;28;20060;-69
2023/08/25 09:39:44;;;;;;;47.78;30.25;;;;;;;17.81;100.00;100568.72;5043391;28;20475;-69
2023/08/25 09:42:10;;;;;;;46.00;29.38;;;;;;;17.82;100.00;100556.09;5044749;28;20024;-68
2023/08/25 09:44:35;;;;;;;44.95;29.85;;;;;;;17.75;100.00;100560.28;5036238;28;20027;-69
2023/08/25 09:47:01;;;;;;;43.58;29.92;;;;;;;17.71;100.00;100574.97;5041877;28;20483;-68
2023/08/25 09:49:37;;;;;;;38.60;28.48;;;;;;;17.74;100.00;100583.69;5040266;28;20024;-68
2023/08/25 09:52:05;;;;;;;36.30;27.52;;;;;;;17.70;100.00;100581.34;5044537;28;20041;-68
2023/08/25 09:54:32;;;;;;;38.13;28.17;;;;;;;17.73;100.00;100586.47;5050502;28;20457;-68
2023/08/25 09:56:58;;;;;;;38.25;28.60;;;;;;;17.70;100.00;100574.13;5033554;28;20499;-69
2023/08/25 09:59:24;;;;;;;39.92;28.92;;;;;;;17.84;100.00;100579.19;5040978;28;20026;-68
2023/08/25 10:01:49;;;;;;;33.28;26.33;;;;;;;17.96;100.00;100581.84;5051201;28;20501;-68
2023/08/25 10:04:16;;;;;;;37.13;28.50;;;;;;;18.09;100.00;100585.16;5045362;28;20120;-68
2023/08/25 10:06:42;;;;;;;38.95;29.00;;;;;;;18.14;100.00;100591.00;5038166;28;20163;-69
2023/08/25 10:09:08;;;;;;;34.30;26.58;;;;;;;18.09;100.00;100596.78;5042390;28;20127;-68
2023/08/25 10:11:45;;;;;;;32.17;25.00;;;;;;;17.97;100.00;100592.47;5041081;28;20035;-68
2023/08/25 10:14:12;;;;;;;33.35;25.20;;;;;;;17.94;100.00;100597.28;5046293;28;20029;-69
2023/08/25 10:16:51;;;;;;;32.47;25.00;;;;;;;17.81;100.00;100595.63;5031015;28;20629;-68
2023/08/25 10:19:24;;;;;;;43.42;28.95;;;;;;;18.11;100.00;100602.06;5032466;28;20074;-68
2023/08/25 10:21:51;;;;;;;42.43;30.00;;;;;;;18.23;100.00;100598.31;5038355;28;20033;-69
2023/08/25 10:24:21;;;;;;;41.45;28.02;;;;;;;18.19;100.00;100598.72;5047682;28;20075;-68
2023/08/25 10:26:48;;;;;;;39.03;28.05;;;;;;;18.16;100.00;100594.44;5024095;28;20029;-69
2023/08/25 10:29:17;;;;;;;39.60;28.83;;;;;;;18.31;100.00;100593.13;5032335;28;20047;-69
2023/08/25 10:31:58;;;;;;;42.67;29.45;;;;;;;18.60;100.00;100597.75;5036327;28;20032;-68
2023/08/25 10:34:44;;;;;;;44.22;30.25;;;;;;;18.83;100.00;100606.56;5037208;28;20029;-67
2023/08/25 10:37:10;;;;;;;38.55;26.80;;;;;;;18.58;100.00;100608.69;5037168;28;20024;-68
2023/08/25 10:39:50;;;;;;;34.53;24.50;;;;;;;18.49;100.00;100608.66;5026417;28;20081;-67
2023/08/25 10:42:19;;;;;;;35.35;25.63;;;;;;;18.36;100.00;100606.19;5027923;28;20578;-68
2023/08/25 10:44:45;;;;;;;36.88;26.05;;;;;;;18.51;100.00;100618.28;5041677;28;20519;-67
2023/08/25 10:47:10;;;;;;;40.63;27.15;;;;;;;18.42;100.00;100611.88;5050472;28;20475;-67
2023/08/25 10:49:39;;;;;;;37.53;24.92;;;;;;;18.23;100.00;100613.63;5035023;28;20024;-68
2023/08/25 10:52:15;;;;;;;32.13;23.55;;;;;;;18.18;100.00;100622.06;5031423;28;20606;-68
2023/08/25 10:54:41;;;;;;;32.53;23.85;;;;;;;18.04;100.00;100617.03;5030410;28;20029;-68
2023/08/25 10:57:20;;;;;;;32.85;24.40;;;;;;;17.96;100.00;100608.75;5036054;28;20027;-68
2023/08/25 10:59:52;;;;;;;33.42;25.52;;;;;;;17.91;100.00;100611.84;5045036;28;20311;-68